Main page
METAR-TAF:

METAR-TAF

Airports :

Andrés Sabella Gálvez International Airport

Antofagasta, Chile

latitude: 23-26S, longitude: 070-26W, elevation: 135 m

Current weather observation

The report was made 16 minutes ago, at 15:00 UTC
Wind 9 kt from the South/Southwest
Temperature 18°C
Humidity 64%
Pressure 1015 hPa
Visibility 10 km or more
Few clouds at a height of 2000 ft

METAR: SCFA 281500Z 20009KT 9999 FEW020 18/11 Q1015 NOSIG

Time: 12:16 (15:16 UTC)

Forecast

The report was made 5 hours and 9 minutes ago, at 10:07 UTC
Forecast valid from 28 at 12 UTC to 29 at 12 UTC
Wind 4 kt from the South
Visibility 10 km or more
Scattered clouds at a height of 2000 ft
Becoming
from 28 at 15 UTC to 28 at 17 UTC
Wind 12 kt from the South/Southwest
Becoming
from 29 at 03 UTC to 29 at 05 UTC
Wind 4 kt from the South
Broken clouds at a height of 1800 ft

TAF: SCFA 281007Z 2812/2912 17004KT 9999 SCT020 TX18/2818Z TN14/2909Z BECMG 2815/2817 21012KT BECMG 2903/2905 18004KT BKN018

Weather observations and forecasts of more than 4000 airports (METAR and TAF reports).

The available stations are represented by yellow and red dots on the map.

Hover mouse over dot to see the name of the station.

Then click to see weather observations and forecasts.

To change the map : click on the green buttons with a black cross to zoom in, on the green button with a dash to zoom out, or on the green arrows for adjacent maps.


METAR-TAF: